Indigo — 6YTG6 — position and weather

sailwx.info

Track history (hours):
 
Tides and Currents Weather Stations Pressure Air Temp Water Temp Dewpoint Dewpoint Depression Visibility Wind Speed Wind Dir Waves Ship Positions

Indigo

Last reported at 2017-Dec-11 03:58 UTC. Time now 2017-Dec-11 04:10 UTC.
Position N 28°28' W 016°15'.

Length 27 m; draft 2.8 m.

Type: Ship. MMSI: 339632000.

Date/timePositionNaut miles runAvg speedWind from/ knotsBaromVisibWave heightAir tempDewpointWater temp
2017-Dec-11 03:58N 28°28' W 016°15'0 0.0
2017-Dec-11 03:28N 28°28' W 016°15'0 0.0
2017-Dec-11 02:58N 28°28' W 016°15'0 0.0
2017-Dec-11 02:25N 28°28' W 016°15'0 0.0
2017-Dec-11 01:58N 28°28' W 016°15'0 0.0
2017-Dec-11 01:25N 28°28' W 016°15'0 0.0
2017-Dec-11 00:58N 28°28' W 016°15'0 0.0
2017-Dec-11 00:28N 28°28' W 016°15'0 0.0
2017-Dec-10 23:58N 28°28' W 016°15'0 0.0
2017-Dec-10 23:28N 28°28' W 016°15'0 0.0
2017-Dec-10 22:58N 28°28' W 016°15'0 0.0
2017-Dec-10 22:28N 28°28' W 016°15'0 0.0
2017-Dec-10 21:58N 28°28' W 016°15'0 0.0
2017-Dec-10 21:28N 28°28' W 016°15'0 0.0
2017-Dec-10 20:58N 28°28' W 016°15'0 0.0
2017-Dec-10 20:28N 28°28' W 016°15'0 0.0
2017-Dec-10 19:58N 28°28' W 016°15'0 0.0
2017-Dec-10 19:28N 28°28' W 016°15'0 0.0
2017-Dec-10 18:58N 28°28' W 016°15'0 0.0
2017-Dec-10 18:28N 28°28' W 016°15'0 0.0
2017-Dec-10 17:58N 28°28' W 016°15'0 0.0
2017-Dec-10 17:28N 28°28' W 016°15'0 0.0
2017-Dec-10 16:58N 28°28' W 016°15'0 0.0
2017-Dec-10 16:28N 28°28' W 016°15'0 0.0
2017-Dec-10 15:58N 28°28' W 016°15'0 0.0
2017-Dec-10 15:28N 28°28' W 016°15'0 0.0
2017-Dec-10 14:58N 28°28' W 016°15'0 0.0
2017-Dec-10 14:28N 28°28' W 016°15'0 0.0
2017-Dec-10 13:58N 28°28' W 016°15'0 0.0
2017-Dec-10 13:28N 28°28' W 016°15'0 0.0
2017-Dec-10 12:58N 28°28' W 016°15'0 0.0
2017-Dec-10 12:28N 28°28' W 016°15'0 0.0
2017-Dec-10 11:58N 28°28' W 016°15'0 0.0
2017-Dec-10 11:28N 28°28' W 016°15'0 0.0
2017-Dec-10 10:58N 28°28' W 016°15'0 0.0
2017-Dec-10 10:28N 28°28' W 016°15'0 0.0
2017-Dec-10 09:58N 28°28' W 016°15'0 0.0
2017-Dec-10 09:30N 28°28' W 016°15'0 0.0
2017-Dec-10 09:00N 28°28' W 016°15'0 0.0
2017-Dec-10 08:30N 28°28' W 016°15'0 0.3
2017-Dec-10 08:00N 28°28' W 016°15'2 3.1
2017-Dec-10 07:30N 28°26' W 016°15'1 2.3
2017-Dec-10 07:00N 28°27' W 016°14'3 5.0
2017-Dec-10 06:30N 28°27' W 016°11'4 7.6
2017-Dec-10 06:00N 28°27' W 016°07'4 7.6
2017-Dec-10 05:30N 28°27' W 016°02'4 7.7
2017-Dec-10 05:00N 28°27' W 015°58'4 7.2
2017-Dec-10 04:30N 28°29' W 015°55'4 7.8
2017-Dec-10 03:59N 28°32' W 015°52'4 7.7
2017-Dec-10 03:27N 28°35' W 015°49'5 7.7
2017-Dec-10 02:51N 28°39' W 015°46'3 8.0
2017-Dec-10 02:30N 28°40' W 015°43'4 8.0
2017-Dec-10 02:00N 28°43' W 015°40'4 7.9
2017-Dec-10 01:28N 28°46' W 015°36'4 7.9
2017-Dec-10 00:59N 28°48' W 015°33'4 7.9
2017-Dec-10 00:28N 28°51' W 015°30'  
2017-Dec-03 11:39N 39°16' E 002°24'2 9.6
2017-Dec-03 11:29N 39°18' E 002°25'5 9.6
2017-Dec-03 11:00N 39°21' E 002°29'5 9.5
2017-Dec-03 10:30N 39°25' E 002°32'5 9.4
2017-Dec-03 10:00N 39°29' E 002°36'3 5.0
2017-Dec-03 09:30N 39°31' E 002°38'3 5.2
2017-Dec-03 09:00N 39°33' E 002°38'0 0.7
2017-Dec-03 08:28N 39°34' E 002°38'0 0.0
2017-Dec-03 07:58N 39°34' E 002°38'0 0.0
2017-Dec-03 07:28N 39°34' E 002°38'0 0.0
2017-Dec-03 06:58N 39°34' E 002°38'0 0.0
2017-Dec-03 06:25N 39°34' E 002°38'0 0.0
2017-Dec-03 05:58N 39°34' E 002°38'0 0.0
2017-Dec-03 05:28N 39°34' E 002°38'0 0.0
2017-Dec-03 04:58N 39°34' E 002°38'0 0.0
2017-Dec-03 04:28N 39°34' E 002°38'0 0.0
2017-Dec-03 03:58N 39°34' E 002°38'0 0.0
2017-Dec-03 03:28N 39°34' E 002°38'0 0.0
2017-Dec-03 02:58N 39°34' E 002°38'0 0.0
2017-Dec-03 02:28N 39°34' E 002°38'0 0.0
2017-Dec-03 01:58N 39°34' E 002°38'0 0.0
2017-Dec-03 01:28N 39°34' E 002°38'0 0.0
2017-Dec-03 00:58N 39°34' E 002°38'0 0.0
2017-Dec-03 00:25N 39°34' E 002°38'0 0.0
2017-Dec-02 23:58N 39°34' E 002°38'0 0.0
2017-Dec-02 23:28N 39°34' E 002°38'0 0.0
2017-Dec-02 22:58N 39°34' E 002°38'0 0.0
2017-Dec-02 22:28N 39°34' E 002°38'0 0.0
2017-Dec-02 21:58N 39°34' E 002°38'0 0.0
2017-Dec-02 21:28N 39°34' E 002°38'0 0.0
2017-Dec-02 20:58N 39°34' E 002°38'0 0.0
2017-Dec-02 20:28N 39°34' E 002°38'0 0.0
2017-Dec-02 19:55N 39°34' E 002°38'0 0.0
2017-Dec-02 19:28N 39°34' E 002°38'0 0.0
2017-Dec-02 18:58N 39°34' E 002°38'0 0.0
2017-Dec-02 18:25N 39°34' E 002°38'0 0.0
2017-Dec-02 17:58N 39°34' E 002°38'0 0.0
2017-Dec-02 17:28N 39°34' E 002°38'0 0.0
2017-Dec-02 16:58N 39°34' E 002°38'0 0.0
2017-Dec-02 16:28N 39°34' E 002°38'0 0.0
2017-Dec-02 15:58N 39°34' E 002°38'0 0.0
2017-Dec-02 15:28N 39°34' E 002°38'0 0.0
2017-Dec-02 14:58N 39°34' E 002°38'0 0.0
2017-Dec-02 14:28N 39°34' E 002°38'0 0.0
2017-Dec-02 13:58N 39°34' E 002°38'0 0.0
2017-Dec-02 13:28N 39°34' E 002°38'0 0.0
2017-Dec-02 12:58N 39°34' E 002°38'0 0.0
2017-Dec-02 12:28N 39°34' E 002°38'0 0.0
2017-Dec-02 11:58N 39°34' E 002°38'0 0.0
2017-Dec-02 11:28N 39°34' E 002°38'0 0.0
2017-Dec-02 10:58N 39°34' E 002°38'0 0.0
2017-Dec-02 10:28N 39°34' E 002°38'0 0.0
2017-Dec-02 09:58N 39°34' E 002°38'0 0.0
2017-Dec-02 09:28N 39°34' E 002°38'0 0.0
2017-Dec-02 08:58N 39°34' E 002°38'0 0.0
2017-Dec-02 08:28N 39°34' E 002°38'0 0.0
2017-Dec-02 07:58N 39°34' E 002°38'0 0.0
2017-Dec-02 07:28N 39°34' E 002°38'0 0.0
2017-Dec-02 06:58N 39°34' E 002°38'0 0.0
2017-Dec-02 06:28N 39°34' E 002°38'0 0.0
2017-Dec-02 05:58N 39°34' E 002°38'0 0.0
2017-Dec-02 05:28N 39°34' E 002°38'0 0.0
2017-Dec-02 04:58N 39°34' E 002°38'0 0.0
2017-Dec-02 04:28N 39°34' E 002°38'0 0.0
2017-Dec-02 03:58N 39°34' E 002°38'0 0.0
2017-Dec-02 03:28N 39°34' E 002°38'0 0.0
2017-Dec-02 02:58N 39°34' E 002°38'0 0.0
2017-Dec-02 02:28N 39°34' E 002°38'0 0.0
2017-Dec-02 01:58N 39°34' E 002°38'0 0.0
2017-Dec-02 01:28N 39°34' E 002°38'0 0.0
2017-Dec-02 00:58N 39°34' E 002°38'0 0.0
2017-Dec-02 00:28N 39°34' E 002°38'0 0.0
2017-Dec-01 23:58N 39°34' E 002°38'0 0.0
2017-Dec-01 23:28N 39°34' E 002°38'0 0.0
2017-Dec-01 22:58N 39°34' E 002°38'0 0.0
2017-Dec-01 22:28N 39°34' E 002°38'0 0.0
2017-Dec-01 21:58N 39°34' E 002°38'0 0.0
2017-Dec-01 21:28N 39°34' E 002°38'0 0.0
2017-Dec-01 20:58N 39°34' E 002°38'0 0.0
2017-Dec-01 20:28N 39°34' E 002°38'0 0.0
2017-Dec-01 19:58N 39°34' E 002°38'0 0.0
2017-Dec-01 19:28N 39°34' E 002°38'0 0.0
2017-Dec-01 18:58N 39°34' E 002°38'0 0.0
2017-Dec-01 18:28N 39°34' E 002°38'0 0.0
2017-Dec-01 17:58N 39°34' E 002°38'0 0.0
2017-Dec-01 17:28N 39°34' E 002°38'0 0.0
2017-Dec-01 16:58N 39°34' E 002°38'0 0.0
2017-Dec-01 16:28N 39°34' E 002°38'0 0.0
2017-Dec-01 15:58N 39°34' E 002°38'0 0.0
2017-Dec-01 15:28N 39°34' E 002°38'0 0.0
2017-Dec-01 14:58N 39°34' E 002°38'0 0.0
2017-Dec-01 14:28N 39°34' E 002°38'0 0.0
2017-Dec-01 13:58N 39°34' E 002°38'0 0.0
2017-Dec-01 13:28N 39°34' E 002°38'0 0.0
2017-Dec-01 12:58N 39°34' E 002°38'0 0.0
2017-Dec-01 12:28N 39°34' E 002°38'0 0.0
2017-Dec-01 11:58N 39°34' E 002°38'0 0.0
2017-Dec-01 11:28N 39°34' E 002°38'0 0.0
2017-Dec-01 10:58N 39°34' E 002°38'0 0.0
2017-Dec-01 10:28N 39°34' E 002°38'0 0.0
2017-Dec-01 09:58N 39°34' E 002°38'0 0.0
2017-Dec-01 09:28N 39°34' E 002°38'0 0.0
2017-Dec-01 08:58N 39°34' E 002°38'0 0.0
2017-Dec-01 08:28N 39°34' E 002°38'0 0.0
2017-Dec-01 07:58N 39°34' E 002°38'0 0.0
2017-Dec-01 07:28N 39°34' E 002°38'0 0.0
2017-Dec-01 06:58N 39°34' E 002°38'0 0.0
2017-Dec-01 06:28N 39°34' E 002°38'0 0.0
2017-Dec-01 05:58N 39°34' E 002°38'0 0.0
2017-Dec-01 05:28N 39°34' E 002°38'0 0.0
2017-Dec-01 04:58N 39°34' E 002°38'0 0.0
2017-Dec-01 04:28N 39°34' E 002°38'0 0.0
2017-Dec-01 03:58N 39°34' E 002°38'  
Track history (hours):
 
Tides and Currents Weather Stations Pressure Air Temp Water Temp Dewpoint Dewpoint Depression Visibility Wind Speed Wind Dir Waves Ship Positions

Indigo

Last reported at 2017-Dec-11 03:58 UTC. Time now 2017-Dec-11 04:10 UTC.
Position N 28°28' W 016°15'.

Length 27 m; draft 2.8 m.

Type: Ship. MMSI: 339632000.

Date/timePositionNaut miles runAvg speedWind from/ knotsBaromVisibWave heightAir tempDewpointWater temp
2017-Dec-11 03:58N 28°28' W 016°15'0 0.0
2017-Dec-11 03:28N 28°28' W 016°15'0 0.0
2017-Dec-11 02:58N 28°28' W 016°15'0 0.0
2017-Dec-11 02:25N 28°28' W 016°15'0 0.0
2017-Dec-11 01:58N 28°28' W 016°15'0 0.0
2017-Dec-11 01:25N 28°28' W 016°15'0 0.0
2017-Dec-11 00:58N 28°28' W 016°15'0 0.0
2017-Dec-11 00:28N 28°28' W 016°15'0 0.0
2017-Dec-10 23:58N 28°28' W 016°15'0 0.0
2017-Dec-10 23:28N 28°28' W 016°15'0 0.0
2017-Dec-10 22:58N 28°28' W 016°15'0 0.0
2017-Dec-10 22:28N 28°28' W 016°15'0 0.0
2017-Dec-10 21:58N 28°28' W 016°15'0 0.0
2017-Dec-10 21:28N 28°28' W 016°15'0 0.0
2017-Dec-10 20:58N 28°28' W 016°15'0 0.0
2017-Dec-10 20:28N 28°28' W 016°15'0 0.0
2017-Dec-10 19:58N 28°28' W 016°15'0 0.0
2017-Dec-10 19:28N 28°28' W 016°15'0 0.0
2017-Dec-10 18:58N 28°28' W 016°15'0 0.0
2017-Dec-10 18:28N 28°28' W 016°15'0 0.0
2017-Dec-10 17:58N 28°28' W 016°15'0 0.0
2017-Dec-10 17:28N 28°28' W 016°15'0 0.0
2017-Dec-10 16:58N 28°28' W 016°15'0 0.0
2017-Dec-10 16:28N 28°28' W 016°15'0 0.0
2017-Dec-10 15:58N 28°28' W 016°15'0 0.0
2017-Dec-10 15:28N 28°28' W 016°15'0 0.0
2017-Dec-10 14:58N 28°28' W 016°15'0 0.0
2017-Dec-10 14:28N 28°28' W 016°15'0 0.0
2017-Dec-10 13:58N 28°28' W 016°15'0 0.0
2017-Dec-10 13:28N 28°28' W 016°15'0 0.0
2017-Dec-10 12:58N 28°28' W 016°15'0 0.0
2017-Dec-10 12:28N 28°28' W 016°15'0 0.0
2017-Dec-10 11:58N 28°28' W 016°15'0 0.0
2017-Dec-10 11:28N 28°28' W 016°15'0 0.0
2017-Dec-10 10:58N 28°28' W 016°15'0 0.0
2017-Dec-10 10:28N 28°28' W 016°15'0 0.0
2017-Dec-10 09:58N 28°28' W 016°15'0 0.0
2017-Dec-10 09:30N 28°28' W 016°15'0 0.0
2017-Dec-10 09:00N 28°28' W 016°15'0 0.0
2017-Dec-10 08:30N 28°28' W 016°15'0 0.3
2017-Dec-10 08:00N 28°28' W 016°15'2 3.1
2017-Dec-10 07:30N 28°26' W 016°15'1 2.3
2017-Dec-10 07:00N 28°27' W 016°14'3 5.0
2017-Dec-10 06:30N 28°27' W 016°11'4 7.6
2017-Dec-10 06:00N 28°27' W 016°07'4 7.6
2017-Dec-10 05:30N 28°27' W 016°02'4 7.7
2017-Dec-10 05:00N 28°27' W 015°58'4 7.2
2017-Dec-10 04:30N 28°29' W 015°55'4 7.8
2017-Dec-10 03:59N 28°32' W 015°52'4 7.7
2017-Dec-10 03:27N 28°35' W 015°49'5 7.7
2017-Dec-10 02:51N 28°39' W 015°46'3 8.0
2017-Dec-10 02:30N 28°40' W 015°43'4 8.0
2017-Dec-10 02:00N 28°43' W 015°40'4 7.9
2017-Dec-10 01:28N 28°46' W 015°36'4 7.9
2017-Dec-10 00:59N 28°48' W 015°33'4 7.9
2017-Dec-10 00:28N 28°51' W 015°30'  
2017-Dec-03 11:39N 39°16' E 002°24'2 9.6
2017-Dec-03 11:29N 39°18' E 002°25'5 9.6
2017-Dec-03 11:00N 39°21' E 002°29'5 9.5
2017-Dec-03 10:30N 39°25' E 002°32'5 9.4
2017-Dec-03 10:00N 39°29' E 002°36'3 5.0
2017-Dec-03 09:30N 39°31' E 002°38'3 5.2
2017-Dec-03 09:00N 39°33' E 002°38'0 0.7
2017-Dec-03 08:28N 39°34' E 002°38'0 0.0
2017-Dec-03 07:58N 39°34' E 002°38'0 0.0
2017-Dec-03 07:28N 39°34' E 002°38'0 0.0
2017-Dec-03 06:58N 39°34' E 002°38'0 0.0
2017-Dec-03 06:25N 39°34' E 002°38'0 0.0
2017-Dec-03 05:58N 39°34' E 002°38'0 0.0
2017-Dec-03 05:28N 39°34' E 002°38'0 0.0
2017-Dec-03 04:58N 39°34' E 002°38'0 0.0
2017-Dec-03 04:28N 39°34' E 002°38'0 0.0
2017-Dec-03 03:58N 39°34' E 002°38'0 0.0
2017-Dec-03 03:28N 39°34' E 002°38'0 0.0
2017-Dec-03 02:58N 39°34' E 002°38'0 0.0
2017-Dec-03 02:28N 39°34' E 002°38'0 0.0
2017-Dec-03 01:58N 39°34' E 002°38'0 0.0
2017-Dec-03 01:28N 39°34' E 002°38'0 0.0
2017-Dec-03 00:58N 39°34' E 002°38'0 0.0
2017-Dec-03 00:25N 39°34' E 002°38'0 0.0
2017-Dec-02 23:58N 39°34' E 002°38'0 0.0
2017-Dec-02 23:28N 39°34' E 002°38'0 0.0
2017-Dec-02 22:58N 39°34' E 002°38'0 0.0
2017-Dec-02 22:28N 39°34' E 002°38'0 0.0
2017-Dec-02 21:58N 39°34' E 002°38'0 0.0
2017-Dec-02 21:28N 39°34' E 002°38'0 0.0
2017-Dec-02 20:58N 39°34' E 002°38'0 0.0
2017-Dec-02 20:28N 39°34' E 002°38'0 0.0
2017-Dec-02 19:55N 39°34' E 002°38'0 0.0
2017-Dec-02 19:28N 39°34' E 002°38'0 0.0
2017-Dec-02 18:58N 39°34' E 002°38'0 0.0
2017-Dec-02 18:25N 39°34' E 002°38'0 0.0
2017-Dec-02 17:58N 39°34' E 002°38'0 0.0
2017-Dec-02 17:28N 39°34' E 002°38'0 0.0
2017-Dec-02 16:58N 39°34' E 002°38'0 0.0
2017-Dec-02 16:28N 39°34' E 002°38'0 0.0
2017-Dec-02 15:58N 39°34' E 002°38'0 0.0
2017-Dec-02 15:28N 39°34' E 002°38'0 0.0
2017-Dec-02 14:58N 39°34' E 002°38'0 0.0
2017-Dec-02 14:28N 39°34' E 002°38'0 0.0
2017-Dec-02 13:58N 39°34' E 002°38'0 0.0
2017-Dec-02 13:28N 39°34' E 002°38'0 0.0
2017-Dec-02 12:58N 39°34' E 002°38'0 0.0
2017-Dec-02 12:28N 39°34' E 002°38'0 0.0
2017-Dec-02 11:58N 39°34' E 002°38'0 0.0
2017-Dec-02 11:28N 39°34' E 002°38'0 0.0
2017-Dec-02 10:58N 39°34' E 002°38'0 0.0
2017-Dec-02 10:28N 39°34' E 002°38'0 0.0
2017-Dec-02 09:58N 39°34' E 002°38'0 0.0
2017-Dec-02 09:28N 39°34' E 002°38'0 0.0
2017-Dec-02 08:58N 39°34' E 002°38'0 0.0
2017-Dec-02 08:28N 39°34' E 002°38'0 0.0
2017-Dec-02 07:58N 39°34' E 002°38'0 0.0
2017-Dec-02 07:28N 39°34' E 002°38'0 0.0
2017-Dec-02 06:58N 39°34' E 002°38'0 0.0
2017-Dec-02 06:28N 39°34' E 002°38'0 0.0
2017-Dec-02 05:58N 39°34' E 002°38'0 0.0
2017-Dec-02 05:28N 39°34' E 002°38'0 0.0
2017-Dec-02 04:58N 39°34' E 002°38'0 0.0
2017-Dec-02 04:28N 39°34' E 002°38'0 0.0
2017-Dec-02 03:58N 39°34' E 002°38'0 0.0
2017-Dec-02 03:28N 39°34' E 002°38'0 0.0
2017-Dec-02 02:58N 39°34' E 002°38'0 0.0
2017-Dec-02 02:28N 39°34' E 002°38'0 0.0
2017-Dec-02 01:58N 39°34' E 002°38'0 0.0
2017-Dec-02 01:28N 39°34' E 002°38'0 0.0
2017-Dec-02 00:58N 39°34' E 002°38'0 0.0
2017-Dec-02 00:28N 39°34' E 002°38'0 0.0
2017-Dec-01 23:58N 39°34' E 002°38'0 0.0
2017-Dec-01 23:28N 39°34' E 002°38'0 0.0
2017-Dec-01 22:58N 39°34' E 002°38'0 0.0
2017-Dec-01 22:28N 39°34' E 002°38'0 0.0
2017-Dec-01 21:58N 39°34' E 002°38'0 0.0
2017-Dec-01 21:28N 39°34' E 002°38'0 0.0
2017-Dec-01 20:58N 39°34' E 002°38'0 0.0
2017-Dec-01 20:28N 39°34' E 002°38'0 0.0
2017-Dec-01 19:58N 39°34' E 002°38'0 0.0
2017-Dec-01 19:28N 39°34' E 002°38'0 0.0
2017-Dec-01 18:58N 39°34' E 002°38'0 0.0
2017-Dec-01 18:28N 39°34' E 002°38'0 0.0
2017-Dec-01 17:58N 39°34' E 002°38'0 0.0
2017-Dec-01 17:28N 39°34' E 002°38'0 0.0
2017-Dec-01 16:58N 39°34' E 002°38'0 0.0
2017-Dec-01 16:28N 39°34' E 002°38'0 0.0
2017-Dec-01 15:58N 39°34' E 002°38'0 0.0
2017-Dec-01 15:28N 39°34' E 002°38'0 0.0
2017-Dec-01 14:58N 39°34' E 002°38'0 0.0
2017-Dec-01 14:28N 39°34' E 002°38'0 0.0
2017-Dec-01 13:58N 39°34' E 002°38'0 0.0
2017-Dec-01 13:28N 39°34' E 002°38'0 0.0
2017-Dec-01 12:58N 39°34' E 002°38'0 0.0
2017-Dec-01 12:28N 39°34' E 002°38'0 0.0
2017-Dec-01 11:58N 39°34' E 002°38'0 0.0
2017-Dec-01 11:28N 39°34' E 002°38'0 0.0
2017-Dec-01 10:58N 39°34' E 002°38'0 0.0
2017-Dec-01 10:28N 39°34' E 002°38'0 0.0
2017-Dec-01 09:58N 39°34' E 002°38'0 0.0
2017-Dec-01 09:28N 39°34' E 002°38'0 0.0
2017-Dec-01 08:58N 39°34' E 002°38'0 0.0
2017-Dec-01 08:28N 39°34' E 002°38'0 0.0
2017-Dec-01 07:58N 39°34' E 002°38'0 0.0
2017-Dec-01 07:28N 39°34' E 002°38'0 0.0
2017-Dec-01 06:58N 39°34' E 002°38'0 0.0
2017-Dec-01 06:28N 39°34' E 002°38'0 0.0
2017-Dec-01 05:58N 39°34' E 002°38'0 0.0
2017-Dec-01 05:28N 39°34' E 002°38'0 0.0
2017-Dec-01 04:58N 39°34' E 002°38'0 0.0
2017-Dec-01 04:28N 39°34' E 002°38'0 0.0
2017-Dec-01 03:58N 39°34' E 002°38'  

Dump ship's entire track history